sensor_id;sensor_type;location;lat;lon;timestamp;pressure;altitude;pressure_sealevel;temperature;humidity
55271;BME280;41132;47.162;9.470;2023-02-16T00:01:24;97643.63;;;0.32;100.00
55271;BME280;41132;47.162;9.470;2023-02-16T00:03:50;97629.44;;;0.22;100.00
55271;BME280;41132;47.162;9.470;2023-02-16T00:06:16;97616.47;;;0.03;100.00
55271;BME280;41132;47.162;9.470;2023-02-16T00:08:46;97631.78;;;0.28;100.00
55271;BME280;41132;47.162;9.470;2023-02-16T00:11:23;97643.19;;;0.22;100.00
55271;BME280;41132;47.162;9.470;2023-02-16T00:14:10;97646.16;;;0.13;100.00
55271;BME280;41132;47.162;9.470;2023-02-16T00:16:37;97637.53;;;0.14;100.00
55271;BME280;41132;47.162;9.470;2023-02-16T00:21:49;97643.63;;;0.11;100.00
55271;BME280;41132;47.162;9.470;2023-02-16T00:24:15;97643.34;;;-0.03;100.00
55271;BME280;41132;47.162;9.470;2023-02-16T00:26:42;97642.38;;;-0.01;100.00
55271;BME280;41132;47.162;9.470;2023-02-16T00:29:13;97624.88;;;-0.14;100.00
55271;BME280;41132;47.162;9.470;2023-02-16T00:31:39;97633.34;;;-0.11;100.00
55271;BME280;41132;47.162;9.470;2023-02-16T00:37:02;97637.75;;;-0.13;100.00
55271;BME280;41132;47.162;9.470;2023-02-16T00:39:28;97628.47;;;-0.18;100.00
55271;BME280;41132;47.162;9.470;2023-02-16T00:41:59;97622.31;;;-0.14;100.00
55271;BME280;41132;47.162;9.470;2023-02-16T00:44:31;97632.53;;;-0.11;100.00
55271;BME280;41132;47.162;9.470;2023-02-16T00:47:02;97636.63;;;-0.07;100.00
55271;BME280;41132;47.162;9.470;2023-02-16T00:49:27;97629.81;;;-0.08;100.00
55271;BME280;41132;47.162;9.470;2023-02-16T00:51:53;97636.03;;;-0.14;100.00
55271;BME280;41132;47.162;9.470;2023-02-16T00:54:19;97631.97;;;0.03;100.00
55271;BME280;41132;47.162;9.470;2023-02-16T00:56:45;97625.31;;;0.17;100.00
55271;BME280;41132;47.162;9.470;2023-02-16T00:59:17;97622.97;;;0.11;100.00
55271;BME280;41132;47.162;9.470;2023-02-16T01:01:43;97608.38;;;-0.10;100.00
55271;BME280;41132;47.162;9.470;2023-02-16T01:04:13;97610.66;;;0.18;100.00
55271;BME280;41132;47.162;9.470;2023-02-16T01:06:41;97620.50;;;-0.12;100.00
55271;BME280;41132;47.162;9.470;2023-02-16T01:09:25;97615.66;;;-0.20;100.00
55271;BME280;41132;47.162;9.470;2023-02-16T01:12:14;97613.13;;;-0.22;100.00
55271;BME280;41132;47.162;9.470;2023-02-16T01:14:51;97608.50;;;-0.13;100.00
55271;BME280;41132;47.162;9.470;2023-02-16T01:17:17;97612.75;;;-0.12;100.00
55271;BME280;41132;47.162;9.470;2023-02-16T01:19:42;97615.91;;;-0.26;100.00
55271;BME280;41132;47.162;9.470;2023-02-16T01:22:08;97611.56;;;-0.26;100.00
55271;BME280;41132;47.162;9.470;2023-02-16T01:24:33;97609.72;;;-0.44;100.00
55271;BME280;41132;47.162;9.470;2023-02-16T01:26:59;97618.66;;;-0.31;100.00
55271;BME280;41132;47.162;9.470;2023-02-16T01:29:24;97619.84;;;-0.17;100.00
55271;BME280;41132;47.162;9.470;2023-02-16T01:31:50;97619.50;;;-0.30;100.00
55271;BME280;41132;47.162;9.470;2023-02-16T01:34:15;97621.28;;;-0.32;100.00
55271;BME280;41132;47.162;9.470;2023-02-16T01:36:43;97621.75;;;-0.43;100.00
55271;BME280;41132;47.162;9.470;2023-02-16T01:39:14;97619.81;;;-0.38;100.00
55271;BME280;41132;47.162;9.470;2023-02-16T01:44:28;97623.41;;;-0.42;100.00
55271;BME280;41132;47.162;9.470;2023-02-16T01:50:21;97623.78;;;-0.51;100.00
55271;BME280;41132;47.162;9.470;2023-02-16T01:55:46;97610.81;;;-0.50;100.00
55271;BME280;41132;47.162;9.470;2023-02-16T01:58:46;97605.53;;;-0.47;100.00
55271;BME280;41132;47.162;9.470;2023-02-16T02:03:32;97606.19;;;-0.19;100.00
55271;BME280;41132;47.162;9.470;2023-02-16T02:06:20;97599.69;;;-0.30;100.00
55271;BME280;41132;47.162;9.470;2023-02-16T02:09:06;97604.16;;;-0.33;100.00
55271;BME280;41132;47.162;9.470;2023-02-16T02:11:42;97603.25;;;-0.32;100.00
55271;BME280;41132;47.162;9.470;2023-02-16T02:14:18;97602.78;;;-0.42;100.00
55271;BME280;41132;47.162;9.470;2023-02-16T02:16:57;97607.28;;;-0.47;100.00
55271;BME280;41132;47.162;9.470;2023-02-16T02:19:24;97607.81;;;-0.61;100.00
55271;BME280;41132;47.162;9.470;2023-02-16T02:24:51;97604.34;;;-0.38;100.00
55271;BME280;41132;47.162;9.470;2023-02-16T02:27:24;97596.06;;;-0.46;100.00
55271;BME280;41132;47.162;9.470;2023-02-16T02:30:35;97602.53;;;-0.36;100.00
55271;BME280;41132;47.162;9.470;2023-02-16T02:36:06;97607.63;;;-0.34;100.00
55271;BME280;41132;47.162;9.470;2023-02-16T02:41:23;97618.38;;;-0.45;100.00
55271;BME280;41132;47.162;9.470;2023-02-16T02:44:13;97608.94;;;-0.46;100.00
55271;BME280;41132;47.162;9.470;2023-02-16T02:46:40;97614.94;;;-0.46;100.00
55271;BME280;41132;47.162;9.470;2023-02-16T02:49:05;97608.34;;;-0.53;100.00
55271;BME280;41132;47.162;9.470;2023-02-16T02:51:31;97595.88;;;-0.42;100.00
55271;BME280;41132;47.162;9.470;2023-02-16T02:56:56;97607.94;;;-0.42;100.00
55271;BME280;41132;47.162;9.470;2023-02-16T02:59:46;97610.88;;;-0.51;100.00
55271;BME280;41132;47.162;9.470;2023-02-16T03:02:34;97616.44;;;-0.62;100.00
55271;BME280;41132;47.162;9.470;2023-02-16T03:05:02;97619.09;;;-0.64;100.00
55271;BME280;41132;47.162;9.470;2023-02-16T03:07:32;97619.34;;;-0.70;100.00
55271;BME280;41132;47.162;9.470;2023-02-16T03:10:20;97615.66;;;-0.42;100.00
55271;BME280;41132;47.162;9.470;2023-02-16T03:13:31;97613.63;;;-0.34;100.00
55271;BME280;41132;47.162;9.470;2023-02-16T03:15:57;97619.50;;;-0.52;100.00
55271;BME280;41132;47.162;9.470;2023-02-16T03:18:26;97612.06;;;-0.60;100.00
55271;BME280;41132;47.162;9.470;2023-02-16T03:21:13;97617.88;;;-0.55;100.00
55271;BME280;41132;47.162;9.470;2023-02-16T03:23:59;97618.31;;;-0.66;100.00
55271;BME280;41132;47.162;9.470;2023-02-16T03:26:45;97610.75;;;-0.48;100.00
55271;BME280;41132;47.162;9.470;2023-02-16T03:29:32;97620.53;;;-0.56;100.00
55271;BME280;41132;47.162;9.470;2023-02-16T03:31:57;97616.34;;;-0.59;100.00
55271;BME280;41132;47.162;9.470;2023-02-16T03:34:24;97616.53;;;-0.64;100.00
55271;BME280;41132;47.162;9.470;2023-02-16T03:36:53;97620.03;;;-0.66;100.00
55271;BME280;41132;47.162;9.470;2023-02-16T03:39:23;97631.34;;;-0.47;100.00
55271;BME280;41132;47.162;9.470;2023-02-16T03:41:51;97631.38;;;-0.48;100.00
55271;BME280;41132;47.162;9.470;2023-02-16T03:44:17;97630.31;;;-0.65;100.00
55271;BME280;41132;47.162;9.470;2023-02-16T03:46:44;97632.09;;;-0.67;100.00
55271;BME280;41132;47.162;9.470;2023-02-16T03:49:09;97641.16;;;-0.56;100.00
55271;BME280;41132;47.162;9.470;2023-02-16T03:51:35;97638.03;;;-0.65;100.00
55271;BME280;41132;47.162;9.470;2023-02-16T03:54:01;97625.72;;;-0.80;100.00
55271;BME280;41132;47.162;9.470;2023-02-16T03:56:26;97634.81;;;-0.70;100.00
55271;BME280;41132;47.162;9.470;2023-02-16T03:58:52;97652.09;;;-0.50;100.00
55271;BME280;41132;47.162;9.470;2023-02-16T04:01:18;97658.63;;;-0.63;100.00
55271;BME280;41132;47.162;9.470;2023-02-16T04:03:43;97658.72;;;-0.66;100.00
55271;BME280;41132;47.162;9.470;2023-02-16T04:06:08;97660.03;;;-0.78;100.00
55271;BME280;41132;47.162;9.470;2023-02-16T04:08:34;97666.63;;;-0.71;100.00
55271;BME280;41132;47.162;9.470;2023-02-16T04:11:00;97655.00;;;-0.81;100.00
55271;BME280;41132;47.162;9.470;2023-02-16T04:13:45;97654.28;;;-0.63;100.00
55271;BME280;41132;47.162;9.470;2023-02-16T04:16:10;97655.28;;;-0.43;100.00
55271;BME280;41132;47.162;9.470;2023-02-16T04:18:36;97666.44;;;-0.66;100.00
55271;BME280;41132;47.162;9.470;2023-02-16T04:21:01;97659.28;;;-0.58;100.00
55271;BME280;41132;47.162;9.470;2023-02-16T04:23:26;97652.19;;;-0.75;100.00
55271;BME280;41132;47.162;9.470;2023-02-16T04:25:52;97656.44;;;-0.74;100.00
55271;BME280;41132;47.162;9.470;2023-02-16T04:28:17;97633.09;;;-0.71;100.00
55271;BME280;41132;47.162;9.470;2023-02-16T04:30:42;97645.97;;;-0.47;100.00
55271;BME280;41132;47.162;9.470;2023-02-16T04:33:08;97647.81;;;-0.51;100.00
55271;BME280;41132;47.162;9.470;2023-02-16T04:35:33;97631.75;;;-0.79;100.00
55271;BME280;41132;47.162;9.470;2023-02-16T04:37:58;97646.25;;;-0.77;100.00
55271;BME280;41132;47.162;9.470;2023-02-16T04:40:24;97634.97;;;-0.98;100.00
55271;BME280;41132;47.162;9.470;2023-02-16T04:42:49;97656.78;;;-0.83;100.00
55271;BME280;41132;47.162;9.470;2023-02-16T04:45:14;97635.94;;;-1.00;100.00
55271;BME280;41132;47.162;9.470;2023-02-16T04:47:40;97653.63;;;-0.91;100.00
55271;BME280;41132;47.162;9.470;2023-02-16T04:50:06;97630.94;;;-1.05;100.00
55271;BME280;41132;47.162;9.470;2023-02-16T04:52:32;97642.38;;;-0.89;100.00
55271;BME280;41132;47.162;9.470;2023-02-16T04:54:58;97656.44;;;-0.74;100.00
55271;BME280;41132;47.162;9.470;2023-02-16T04:57:24;97648.88;;;-0.78;100.00
55271;BME280;41132;47.162;9.470;2023-02-16T04:59:49;97651.84;;;-0.89;100.00
55271;BME280;41132;47.162;9.470;2023-02-16T05:02:15;97648.47;;;-0.91;100.00
55271;BME280;41132;47.162;9.470;2023-02-16T05:04:40;97661.50;;;-0.94;100.00
55271;BME280;41132;47.162;9.470;2023-02-16T05:07:06;97649.06;;;-1.07;100.00
55271;BME280;41132;47.162;9.470;2023-02-16T05:09:31;97657.47;;;-1.01;100.00
55271;BME280;41132;47.162;9.470;2023-02-16T05:11:57;97665.72;;;-0.93;100.00
55271;BME280;41132;47.162;9.470;2023-02-16T05:14:41;97665.03;;;-0.97;100.00
55271;BME280;41132;47.162;9.470;2023-02-16T05:17:08;97665.84;;;-0.96;100.00
55271;BME280;41132;47.162;9.470;2023-02-16T05:19:34;97667.94;;;-1.06;100.00
55271;BME280;41132;47.162;9.470;2023-02-16T05:21:59;97675.38;;;-0.98;100.00
55271;BME280;41132;47.162;9.470;2023-02-16T05:24:25;97658.28;;;-1.01;100.00
55271;BME280;41132;47.162;9.470;2023-02-16T05:26:50;97660.75;;;-0.98;100.00
55271;BME280;41132;47.162;9.470;2023-02-16T05:29:16;97675.59;;;-1.05;100.00
55271;BME280;41132;47.162;9.470;2023-02-16T05:31:41;97665.69;;;-1.15;100.00
55271;BME280;41132;47.162;9.470;2023-02-16T05:34:06;97680.44;;;-1.20;100.00
55271;BME280;41132;47.162;9.470;2023-02-16T05:36:32;97687.94;;;-1.13;100.00
55271;BME280;41132;47.162;9.470;2023-02-16T05:38:57;97686.56;;;-1.23;100.00
55271;BME280;41132;47.162;9.470;2023-02-16T05:41:22;97681.19;;;-1.17;100.00
55271;BME280;41132;47.162;9.470;2023-02-16T05:43:53;97687.34;;;-1.21;100.00
55271;BME280;41132;47.162;9.470;2023-02-16T05:46:20;97673.84;;;-1.28;100.00
55271;BME280;41132;47.162;9.470;2023-02-16T05:48:45;97687.13;;;-1.15;100.00
55271;BME280;41132;47.162;9.470;2023-02-16T05:53:46;97687.19;;;-1.16;100.00
55271;BME280;41132;47.162;9.470;2023-02-16T05:56:12;97689.25;;;-1.26;100.00
55271;BME280;41132;47.162;9.470;2023-02-16T05:58:38;97676.50;;;-1.29;100.00
55271;BME280;41132;47.162;9.470;2023-02-16T06:01:03;97688.25;;;-1.22;100.00
55271;BME280;41132;47.162;9.470;2023-02-16T06:36:24;97708.13;;;-1.26;100.00
55271;BME280;41132;47.162;9.470;2023-02-16T07:52:03;97750.28;;;-0.32;100.00
55271;BME280;41132;47.162;9.470;2023-02-16T08:23:25;97742.44;;;2.14;100.00
55271;BME280;41132;47.162;9.470;2023-02-16T08:31:02;97730.50;;;2.81;100.00
55271;BME280;41132;47.162;9.470;2023-02-16T09:07:05;97715.06;;;4.39;100.00
55271;BME280;41132;47.162;9.470;2023-02-16T09:09:30;97725.56;;;4.68;100.00
55271;BME280;41132;47.162;9.470;2023-02-16T09:11:56;97725.09;;;4.76;100.00
55271;BME280;41132;47.162;9.470;2023-02-16T09:14:22;97727.44;;;4.80;100.00
55271;BME280;41132;47.162;9.470;2023-02-16T09:16:47;97716.69;;;5.15;100.00
55271;BME280;41132;47.162;9.470;2023-02-16T09:19:15;97721.25;;;5.40;96.63
55271;BME280;41132;47.162;9.470;2023-02-16T09:21:41;97727.75;;;5.62;93.38
55271;BME280;41132;47.162;9.470;2023-02-16T09:29:17;97717.06;;;6.35;81.94
55271;BME280;41132;47.162;9.470;2023-02-16T10:48:42;97684.78;;;9.43;62.75
55271;BME280;41132;47.162;9.470;2023-02-16T11:45:33;97617.44;;;8.29;69.93
55271;BME280;41132;47.162;9.470;2023-02-16T11:50:36;97606.78;;;8.32;73.22
55271;BME280;41132;47.162;9.470;2023-02-16T11:55:36;97605.31;;;8.28;69.17
55271;BME280;41132;47.162;9.470;2023-02-16T12:00:37;97597.47;;;8.28;73.69
55271;BME280;41132;47.162;9.470;2023-02-16T12:03:25;97596.03;;;8.24;70.51
55271;BME280;41132;47.162;9.470;2023-02-16T12:16:59;97583.72;;;8.37;68.50
55271;BME280;41132;47.162;9.470;2023-02-16T12:19:41;97577.66;;;8.36;69.84
55271;BME280;41132;47.162;9.470;2023-02-16T12:27:30;97557.50;;;8.50;67.39
55271;BME280;41132;47.162;9.470;2023-02-16T12:45:57;97543.25;;;8.65;65.26
55271;BME280;41132;47.162;9.470;2023-02-16T12:48:38;97540.94;;;8.61;68.01
55271;BME280;41132;47.162;9.470;2023-02-16T12:51:11;97539.06;;;8.74;67.43
55271;BME280;41132;47.162;9.470;2023-02-16T12:53:49;97534.06;;;8.82;65.95
55271;BME280;41132;47.162;9.470;2023-02-16T13:07:19;97508.25;;;9.00;64.51
55271;BME280;41132;47.162;9.470;2023-02-16T13:12:38;97506.44;;;9.12;64.27
55271;BME280;41132;47.162;9.470;2023-02-16T13:31:31;97494.66;;;9.17;58.30
55271;BME280;41132;47.162;9.470;2023-02-16T14:02:55;97486.16;;;9.25;58.02
55271;BME280;41132;47.162;9.470;2023-02-16T14:05:30;97481.31;;;9.20;58.99
55271;BME280;41132;47.162;9.470;2023-02-16T14:13:27;97479.88;;;9.16;57.00
55271;BME280;41132;47.162;9.470;2023-02-16T14:21:05;97476.97;;;9.31;57.66
55271;BME280;41132;47.162;9.470;2023-02-16T14:49:44;97460.09;;;9.24;57.46
55271;BME280;41132;47.162;9.470;2023-02-16T14:56:24;97462.34;;;9.28;57.68
55271;BME280;41132;47.162;9.470;2023-02-16T14:58:39;97461.63;;;9.26;58.34
55271;BME280;41132;47.162;9.470;2023-02-16T15:01:14;97466.91;;;9.15;59.40
55271;BME280;41132;47.162;9.470;2023-02-16T15:03:45;97458.31;;;9.13;61.04
55271;BME280;41132;47.162;9.470;2023-02-16T15:06:24;97457.88;;;8.96;61.51
55271;BME280;41132;47.162;9.470;2023-02-16T15:08:56;97461.25;;;8.87;62.46
55271;BME280;41132;47.162;9.470;2023-02-16T15:11:34;97471.25;;;8.82;65.29
55271;BME280;41132;47.162;9.470;2023-02-16T15:14:21;97468.75;;;8.69;65.27
55271;BME280;41132;47.162;9.470;2023-02-16T15:16:48;97467.47;;;8.64;66.19
55271;BME280;41132;47.162;9.470;2023-02-16T15:19:18;97461.47;;;8.39;68.70
55271;BME280;41132;47.162;9.470;2023-02-16T15:21:46;97463.97;;;8.29;70.05
55271;BME280;41132;47.162;9.470;2023-02-16T15:24:21;97457.78;;;8.19;70.94
55271;BME280;41132;47.162;9.470;2023-02-16T15:26:55;97458.13;;;8.03;72.74
55271;BME280;41132;47.162;9.470;2023-02-16T15:29:24;97458.09;;;7.92;73.75
55271;BME280;41132;47.162;9.470;2023-02-16T15:31:53;97463.06;;;7.84;74.52
55271;BME280;41132;47.162;9.470;2023-02-16T15:34:32;97460.28;;;7.74;75.84
55271;BME280;41132;47.162;9.470;2023-02-16T15:36:59;97458.88;;;7.70;76.17
55271;BME280;41132;47.162;9.470;2023-02-16T15:39:32;97461.72;;;7.67;75.71
55271;BME280;41132;47.162;9.470;2023-02-16T15:42:17;97466.69;;;7.59;76.30
55271;BME280;41132;47.162;9.470;2023-02-16T15:44:44;97458.94;;;7.57;76.13
55271;BME280;41132;47.162;9.470;2023-02-16T15:49:45;97462.63;;;7.55;77.01
55271;BME280;41132;47.162;9.470;2023-02-16T15:52:13;97466.16;;;7.53;77.16
55271;BME280;41132;47.162;9.470;2023-02-16T15:54:41;97464.56;;;7.40;78.68
55271;BME280;41132;47.162;9.470;2023-02-16T15:59:47;97477.03;;;7.36;80.59
55271;BME280;41132;47.162;9.470;2023-02-16T16:02:19;97472.34;;;7.28;81.43
55271;BME280;41132;47.162;9.470;2023-02-16T16:04:48;97479.47;;;7.26;81.90
55271;BME280;41132;47.162;9.470;2023-02-16T16:07:27;97472.19;;;7.19;83.24
55271;BME280;41132;47.162;9.470;2023-02-16T16:09:54;97477.50;;;7.17;83.77
55271;BME280;41132;47.162;9.470;2023-02-16T16:12:21;97481.09;;;7.16;84.05
55271;BME280;41132;47.162;9.470;2023-02-16T16:14:52;97481.09;;;7.16;85.15
55271;BME280;41132;47.162;9.470;2023-02-16T16:17:23;97483.31;;;7.09;84.74
55271;BME280;41132;47.162;9.470;2023-02-16T16:19:49;97485.19;;;7.07;85.02
55271;BME280;41132;47.162;9.470;2023-02-16T16:22:36;97481.75;;;7.07;84.17
55271;BME280;41132;47.162;9.470;2023-02-16T16:27:58;97474.19;;;6.91;85.00
55271;BME280;41132;47.162;9.470;2023-02-16T16:30:25;97477.53;;;6.80;85.39
55271;BME280;41132;47.162;9.470;2023-02-16T16:33:06;97479.66;;;6.75;84.22
55271;BME280;41132;47.162;9.470;2023-02-16T16:35:40;97490.09;;;6.75;84.88
55271;BME280;41132;47.162;9.470;2023-02-16T16:38:23;97498.63;;;6.77;86.96
55271;BME280;41132;47.162;9.470;2023-02-16T16:40:55;97496.03;;;6.77;88.08
55271;BME280;41132;47.162;9.470;2023-02-16T16:43:33;97492.38;;;6.67;87.58
55271;BME280;41132;47.162;9.470;2023-02-16T16:46:19;97503.16;;;6.50;90.48
55271;BME280;41132;47.162;9.470;2023-02-16T16:48:50;97498.97;;;6.47;89.95
55271;BME280;41132;47.162;9.470;2023-02-16T16:51:39;97502.84;;;6.41;88.64
55271;BME280;41132;47.162;9.470;2023-02-16T16:54:12;97514.66;;;6.34;90.22
55271;BME280;41132;47.162;9.470;2023-02-16T16:56:54;97514.13;;;6.29;89.32
55271;BME280;41132;47.162;9.470;2023-02-16T16:59:19;97523.41;;;6.20;88.78
55271;BME280;41132;47.162;9.470;2023-02-16T17:01:45;97520.47;;;6.12;90.34
55271;BME280;41132;47.162;9.470;2023-02-16T17:04:13;97515.88;;;6.03;91.58
55271;BME280;41132;47.162;9.470;2023-02-16T17:06:39;97525.88;;;6.09;90.21
55271;BME280;41132;47.162;9.470;2023-02-16T17:09:04;97531.41;;;6.04;91.96
55271;BME280;41132;47.162;9.470;2023-02-16T17:11:32;97528.38;;;6.11;88.96
55271;BME280;41132;47.162;9.470;2023-02-16T17:14:19;97547.06;;;6.04;90.53
55271;BME280;41132;47.162;9.470;2023-02-16T17:16:46;97540.16;;;6.03;90.01
55271;BME280;41132;47.162;9.470;2023-02-16T17:19:15;97544.94;;;5.97;90.30
55271;BME280;41132;47.162;9.470;2023-02-16T17:21:41;97538.81;;;5.83;91.90
55271;BME280;41132;47.162;9.470;2023-02-16T17:24:06;97550.72;;;5.88;92.72
55271;BME280;41132;47.162;9.470;2023-02-16T17:26:32;97549.38;;;5.82;93.07
55271;BME280;41132;47.162;9.470;2023-02-16T17:28:58;97559.44;;;5.74;94.42
55271;BME280;41132;47.162;9.470;2023-02-16T17:31:23;97556.53;;;5.78;93.00
55271;BME280;41132;47.162;9.470;2023-02-16T17:33:49;97547.75;;;5.67;93.75
55271;BME280;41132;47.162;9.470;2023-02-16T17:36:14;97549.00;;;5.61;95.20
55271;BME280;41132;47.162;9.470;2023-02-16T17:41:25;97550.00;;;5.58;94.88
55271;BME280;41132;47.162;9.470;2023-02-16T18:09:41;97556.91;;;5.59;92.69
55271;BME280;41132;47.162;9.470;2023-02-16T18:12:08;97556.75;;;5.48;94.45
55271;BME280;41132;47.162;9.470;2023-02-16T18:14:33;97561.44;;;5.43;94.91
55271;BME280;41132;47.162;9.470;2023-02-16T18:17:00;97558.97;;;5.54;91.52
55271;BME280;41132;47.162;9.470;2023-02-16T18:19:26;97569.28;;;5.56;91.58
55271;BME280;41132;47.162;9.470;2023-02-16T18:21:53;97562.59;;;5.52;91.30
55271;BME280;41132;47.162;9.470;2023-02-16T18:24:19;97561.44;;;5.43;92.23
55271;BME280;41132;47.162;9.470;2023-02-16T18:26:45;97565.47;;;5.47;92.03
55271;BME280;41132;47.162;9.470;2023-02-16T18:29:11;97564.34;;;5.51;92.62
55271;BME280;41132;47.162;9.470;2023-02-16T18:31:37;97565.00;;;5.55;89.24
55271;BME280;41132;47.162;9.470;2023-02-16T18:34:06;97569.53;;;5.65;88.83
55271;BME280;41132;47.162;9.470;2023-02-16T18:36:35;97574.84;;;5.64;89.18
55271;BME280;41132;47.162;9.470;2023-02-16T18:39:02;97563.16;;;5.57;88.74
55271;BME280;41132;47.162;9.470;2023-02-16T18:41:27;97565.00;;;5.55;91.03
55271;BME280;41132;47.162;9.470;2023-02-16T18:43:53;97573.75;;;5.54;90.41
55271;BME280;41132;47.162;9.470;2023-02-16T18:46:18;97570.09;;;5.56;88.46
55271;BME280;41132;47.162;9.470;2023-02-16T18:48:43;97560.41;;;5.58;87.30
55271;BME280;41132;47.162;9.470;2023-02-16T18:51:10;97569.94;;;5.59;90.74
55271;BME280;41132;47.162;9.470;2023-02-16T19:11:33;97564.84;;;5.43;92.53
55271;BME280;41132;47.162;9.470;2023-02-16T19:32:34;97592.09;;;5.52;92.80
55271;BME280;41132;47.162;9.470;2023-02-16T19:34:59;97597.69;;;5.46;92.72
55271;BME280;41132;47.162;9.470;2023-02-16T19:37:25;97602.06;;;5.46;93.30
55271;BME280;41132;47.162;9.470;2023-02-16T19:39:50;97608.28;;;5.43;94.68
55271;BME280;41132;47.162;9.470;2023-02-16T19:42:16;97595.69;;;5.22;97.78
55271;BME280;41132;47.162;9.470;2023-02-16T19:44:41;97608.88;;;5.34;96.22
55271;BME280;41132;47.162;9.470;2023-02-16T19:47:06;97605.06;;;5.25;98.19
55271;BME280;41132;47.162;9.470;2023-02-16T19:49:32;97597.72;;;5.17;97.10
55271;BME280;41132;47.162;9.470;2023-02-16T19:51:58;97599.47;;;5.31;95.62
55271;BME280;41132;47.162;9.470;2023-02-16T19:54:28;97613.97;;;5.35;96.03
55271;BME280;41132;47.162;9.470;2023-02-16T19:56:54;97601.91;;;5.20;98.03
55271;BME280;41132;47.162;9.470;2023-02-16T19:59:20;97605.72;;;5.14;99.54
55271;BME280;41132;47.162;9.470;2023-02-16T20:01:45;97620.59;;;5.12;99.88
55271;BME280;41132;47.162;9.470;2023-02-16T20:04:10;97613.75;;;5.11;100.00
55271;BME280;41132;47.162;9.470;2023-02-16T20:06:36;97606.66;;;4.99;100.00
55271;BME280;41132;47.162;9.470;2023-02-16T20:09:03;97619.78;;;5.12;100.00
55271;BME280;41132;47.162;9.470;2023-02-16T20:11:29;97620.34;;;5.02;100.00
55271;BME280;41132;47.162;9.470;2023-02-16T20:13:55;97626.84;;;5.10;100.00
55271;BME280;41132;47.162;9.470;2023-02-16T20:16:21;97628.59;;;5.09;100.00
55271;BME280;41132;47.162;9.470;2023-02-16T20:18:48;97621.16;;;5.03;100.00
55271;BME280;41132;47.162;9.470;2023-02-16T20:21:22;97619.22;;;5.07;100.00
55271;BME280;41132;47.162;9.470;2023-02-16T20:23:50;97635.84;;;5.04;100.00
55271;BME280;41132;47.162;9.470;2023-02-16T20:26:22;97632.22;;;5.07;100.00
55271;BME280;41132;47.162;9.470;2023-02-16T20:28:49;97627.50;;;5.13;100.00
55271;BME280;41132;47.162;9.470;2023-02-16T20:31:22;97636.28;;;5.11;100.00
55271;BME280;41132;47.162;9.470;2023-02-16T20:33:48;97628.69;;;5.08;100.00
55271;BME280;41132;47.162;9.470;2023-02-16T20:36:13;97633.63;;;4.98;100.00
55271;BME280;41132;47.162;9.470;2023-02-16T20:38:39;97621.16;;;5.03;100.00
55271;BME280;41132;47.162;9.470;2023-02-16T20:41:05;97626.38;;;5.03;100.00
55271;BME280;41132;47.162;9.470;2023-02-16T20:43:31;97624.50;;;5.05;100.00
55271;BME280;41132;47.162;9.470;2023-02-16T20:45:57;97628.13;;;5.02;100.00
55271;BME280;41132;47.162;9.470;2023-02-16T20:48:23;97619.50;;;5.02;100.00
55271;BME280;41132;47.162;9.470;2023-02-16T20:50:56;97621.72;;;5.08;100.00
55271;BME280;41132;47.162;9.470;2023-02-16T20:53:23;97613.34;;;5.03;100.00
55271;BME280;41132;47.162;9.470;2023-02-16T20:55:48;97621.25;;;5.01;100.00
55271;BME280;41132;47.162;9.470;2023-02-16T20:58:14;97627.50;;;5.13;100.00
55271;BME280;41132;47.162;9.470;2023-02-16T21:00:42;97615.88;;;5.05;100.00
55271;BME280;41132;47.162;9.470;2023-02-16T21:03:08;97624.03;;;4.98;100.00
55271;BME280;41132;47.162;9.470;2023-02-16T21:05:33;97612.03;;;5.10;100.00
55271;BME280;41132;47.162;9.470;2023-02-16T21:07:58;97622.47;;;5.25;100.00
55271;BME280;41132;47.162;9.470;2023-02-16T21:10:24;97604.19;;;4.97;100.00
55271;BME280;41132;47.162;9.470;2023-02-16T21:12:49;97611.59;;;5.03;100.00
55271;BME280;41132;47.162;9.470;2023-02-16T21:15:14;97611.13;;;5.11;100.00
55271;BME280;41132;47.162;9.470;2023-02-16T21:17:40;97608.25;;;5.01;100.00
55271;BME280;41132;47.162;9.470;2023-02-16T21:20:06;97610.75;;;5.03;100.00
55271;BME280;41132;47.162;9.470;2023-02-16T21:22:31;97603.31;;;5.11;97.99
55271;BME280;41132;47.162;9.470;2023-02-16T21:24:57;97597.91;;;5.14;98.06
55271;BME280;41132;47.162;9.470;2023-02-16T21:27:22;97604.06;;;5.13;99.43
55271;BME280;41132;47.162;9.470;2023-02-16T21:29:48;97599.03;;;5.10;99.72
55271;BME280;41132;47.162;9.470;2023-02-16T21:32:13;97604.16;;;5.12;100.00
55271;BME280;41132;47.162;9.470;2023-02-16T21:34:38;97604.69;;;5.17;98.78
55271;BME280;41132;47.162;9.470;2023-02-16T21:37:04;97605.25;;;5.22;98.22
55271;BME280;41132;47.162;9.470;2023-02-16T21:39:30;97602.13;;;5.02;100.00
55271;BME280;41132;47.162;9.470;2023-02-16T21:42:14;97609.56;;;5.09;100.00
55271;BME280;41132;47.162;9.470;2023-02-16T21:44:40;97604.72;;;5.02;100.00
55271;BME280;41132;47.162;9.470;2023-02-16T21:47:11;97601.84;;;4.93;100.00
55271;BME280;41132;47.162;9.470;2023-02-16T21:49:55;97610.00;;;5.01;100.00
55271;BME280;41132;47.162;9.470;2023-02-16T21:52:20;97610.28;;;4.96;100.00
55271;BME280;41132;47.162;9.470;2023-02-16T21:54:45;97612.78;;;5.12;100.00
55271;BME280;41132;47.162;9.470;2023-02-16T21:57:30;97606.84;;;5.10;100.00
55271;BME280;41132;47.162;9.470;2023-02-16T21:59:55;97612.78;;;5.12;100.00
55271;BME280;41132;47.162;9.470;2023-02-16T22:02:21;97606.66;;;5.13;100.00
55271;BME280;41132;47.162;9.470;2023-02-16T22:04:47;97608.69;;;5.08;100.00
55271;BME280;41132;47.162;9.470;2023-02-16T22:07:12;97611.50;;;5.05;100.00
55271;BME280;41132;47.162;9.470;2023-02-16T22:09:38;97605.28;;;4.93;100.00
55271;BME280;41132;47.162;9.470;2023-02-16T22:12:03;97599.25;;;4.93;100.00
55271;BME280;41132;47.162;9.470;2023-02-16T22:14:28;97607.06;;;4.93;100.00
55271;BME280;41132;47.162;9.470;2023-02-16T22:16:54;97599.25;;;4.93;100.00
55271;BME280;41132;47.162;9.470;2023-02-16T22:19:19;97603.31;;;4.97;100.00
55271;BME280;41132;47.162;9.470;2023-02-16T22:21:46;97604.06;;;4.99;100.00
55271;BME280;41132;47.162;9.470;2023-02-16T22:24:13;97606.94;;;4.94;100.00
55271;BME280;41132;47.162;9.470;2023-02-16T22:26:39;97604.25;;;4.96;100.00